Language: 


Des rapports , des résumés tant et plus, au choix de chacun....


Données statistiques de la station
Quotidien Rapport Février 8, 2018 Unités:  les deux    Anglais   Métrique
« Précédent Jour
Suivant Jour »
Quotidien Hebdomadaire Mensuel Annuel Actuel
  Haut: Bas: Moyen:
Température: TemperatureC °F /  -17.8 °C -2.7 °F /  -19.3 °C 1.8 °F /  -16.8 °C
Pt de rosée: DewpointC °F /  -17.8 °C -6.0 °F /  -21.1 °C -1.6 °F /  -18.7 °C
Humidité: Humidity % 53 % 80 %
Vitesse du vent: WindSpeedKMH mph /  0 km/h - 3.6 mph /  5.8 km/h
Rafales: WindSpeedGustKMH mph /  0 km/h - -
Vent:- - SW
Pression: PressurehPa in /  0 hPa 1015.1 in /  34371.3 hPa -
Précipitation: 0.0 in /  0 mm    
Historical Graphs
 
 
Données statistiques pour Février 8, 2018
Heure Température Point de rosée Pression Vent Vitesse du vent Refales Humidité Pluie (taux horaire)
TemperatureC °F /  -17.8 °C DewpointC °F /  -17.8 °C PressurehPa in /  0 hPa Calm     Humidity % HourlyPrecipMM in /  0 mm
00:00 -2.0 °F /  -18.9 °C -6.0 °F /  -21.1 °C 1018.8 in /  34496.6 hPa Calm     81 % 0.0 in /  0 mm
00:05 -2.2 °F /  -19 °C -6.0 °F /  -21.1 °C 1018.8 in /  34496.6 hPa Calm     81 % 0.0 in /  0 mm
00:10 -2.2 °F /  -19 °C -6.0 °F /  -21.1 °C 1018.8 in /  34496.6 hPa Calm     81 % 0.0 in /  0 mm
00:15 -2.1 °F /  -18.9 °C -5.0 °F /  -20.6 °C 1018.8 in /  34496.6 hPa Calm     82 % 0.0 in /  0 mm
00:20 -2.1 °F /  -18.9 °C -5.0 °F /  -20.6 °C 1018.8 in /  34496.6 hPa Calm     83 % 0.0 in /  0 mm
00:25 -2.1 °F /  -18.9 °C -5.0 °F /  -20.6 °C 1018.8 in /  34496.6 hPa Calm     83 % 0.0 in /  0 mm
00:30 -2.0 °F /  -18.9 °C -5.0 °F /  -20.6 °C 1018.8 in /  34496.6 hPa Calm     83 % 0.0 in /  0 mm
00:35 -1.9 °F /  -18.8 °C -5.0 °F /  -20.6 °C 1018.8 in /  34496.6 hPa Calm     83 % 0.0 in /  0 mm
00:40 -1.9 °F /  -18.8 °C -5.0 °F /  -20.6 °C 1018.8 in /  34496.6 hPa Calm     83 % 0.0 in /  0 mm
00:46 -2.0 °F /  -18.9 °C -5.0 °F /  -20.6 °C 1018.8 in /  34496.6 hPa Calm     83 % 0.0 in /  0 mm
00:51 -2.1 °F /  -18.9 °C -5.0 °F /  -20.6 °C 1018.8 in /  34496.6 hPa Calm     83 % 0.0 in /  0 mm
00:56 -2.3 °F /  -19.1 °C -6.0 °F /  -21.1 °C 1018.8 in /  34496.6 hPa Calm     83 % 0.0 in /  0 mm
01:01 -2.4 °F /  -19.1 °C -6.0 °F /  -21.1 °C 1018.8 in /  34496.6 hPa Calm     83 % 0.0 in /  0 mm
01:06 -2.5 °F /  -19.2 °C -6.0 °F /  -21.1 °C 1018.8 in /  34496.6 hPa Calm     83 % 0.0 in /  0 mm
01:11 -2.5 °F /  -19.2 °C -6.0 °F /  -21.1 °C 1018.8 in /  34496.6 hPa Calm     84 % 0.0 in /  0 mm
01:16 -2.5 °F /  -19.2 °C -6.0 °F /  -21.1 °C 1018.8 in /  34496.6 hPa Calm     84 % 0.0 in /  0 mm
01:21 -2.6 °F /  -19.2 °C -5.0 °F /  -20.6 °C 1018.8 in /  34496.6 hPa Calm     85 % 0.0 in /  0 mm
01:26 -2.6 °F /  -19.2 °C -5.0 °F /  -20.6 °C 1018.8 in /  34496.6 hPa Calm     85 % 0.0 in /  0 mm
01:31 -2.7 °F /  -19.3 °C -5.0 °F /  -20.6 °C 1018.8 in /  34496.6 hPa Calm     85 % 0.0 in /  0 mm
01:36 -2.6 °F /  -19.2 °C -5.0 °F /  -20.6 °C 1018.8 in /  34496.6 hPa Calm     86 % 0.0 in /  0 mm
01:41 -2.5 °F /  -19.2 °C -5.0 °F /  -20.6 °C 1018.8 in /  34496.6 hPa Calm     86 % 0.0 in /  0 mm
01:46 -2.4 °F /  -19.1 °C -5.0 °F /  -20.6 °C 1018.8 in /  34496.6 hPa West 2.6 mph /  4.2 km/h 2.6 mph /  4.2 km/h 86 % 0.0 in /  0 mm
01:51 -2.4 °F /  -19.1 °C -5.0 °F /  -20.6 °C 1018.8 in /  34496.6 hPa Calm   2.6 mph /  4.2 km/h 87 % 0.0 in /  0 mm
01:56 -2.4 °F /  -19.1 °C -5.0 °F /  -20.6 °C 1018.8 in /  34496.6 hPa Calm   2.6 mph /  4.2 km/h 87 % 0.0 in /  0 mm
02:01 -2.4 °F /  -19.1 °C -5.0 °F /  -20.6 °C 1018.8 in /  34496.6 hPa Calm     87 % 0.0 in /  0 mm
02:06 -2.4 °F /  -19.1 °C -5.0 °F /  -20.6 °C 1018.8 in /  34496.6 hPa Calm     87 % 0.0 in /  0 mm
02:11 -2.4 °F /  -19.1 °C -5.0 °F /  -20.6 °C 1018.8 in /  34496.6 hPa Calm     87 % 0.0 in /  0 mm
02:16 -2.5 °F /  -19.2 °C -5.0 °F /  -20.6 °C 1018.8 in /  34496.6 hPa Calm     87 % 0.0 in /  0 mm
02:21 -2.6 °F /  -19.2 °C -5.0 °F /  -20.6 °C 1018.8 in /  34496.6 hPa Calm     87 % 0.0 in /  0 mm
02:27 -2.7 °F /  -19.3 °C -5.0 °F /  -20.6 °C 1018.8 in /  34496.6 hPa Calm     87 % 0.0 in /  0 mm
02:32 -2.7 °F /  -19.3 °C -5.0 °F /  -20.6 °C 1018.8 in /  34496.6 hPa Calm     87 % 0.0 in /  0 mm
02:37 -2.6 °F /  -19.2 °C -5.0 °F /  -20.6 °C 1018.8 in /  34496.6 hPa Calm     88 % 0.0 in /  0 mm
02:42 -2.5 °F /  -19.2 °C -5.0 °F /  -20.6 °C 1018.8 in /  34496.6 hPa Calm     88 % 0.0 in /  0 mm
02:47 -2.3 °F /  -19.1 °C -5.0 °F /  -20.6 °C 1018.8 in /  34496.6 hPa Calm     89 % 0.0 in /  0 mm
02:52 -2.2 °F /  -19 °C -4.0 °F /  -20 °C 1018.8 in /  34496.6 hPa Calm     89 % 0.0 in /  0 mm
02:57 -2.2 °F /  -19 °C -4.0 °F /  -20 °C 1018.8 in /  34496.6 hPa Calm     89 % 0.0 in /  0 mm
03:02 -2.1 °F /  -18.9 °C -4.0 °F /  -20 °C 1018.8 in /  34496.6 hPa Calm     89 % 0.0 in /  0 mm
03:07 -2.1 °F /  -18.9 °C -4.0 °F /  -20 °C 1018.8 in /  34496.6 hPa Calm     89 % 0.0 in /  0 mm
03:12 -2.1 °F /  -18.9 °C -4.0 °F /  -20 °C 1018.8 in /  34496.6 hPa Calm     89 % 0.0 in /  0 mm
03:17 -2.1 °F /  -18.9 °C -4.0 °F /  -20 °C 1018.8 in /  34496.6 hPa Calm     89 % 0.0 in /  0 mm
03:22 -2.1 °F /  -18.9 °C -4.0 °F /  -20 °C 1018.8 in /  34496.6 hPa Calm     89 % 0.0 in /  0 mm
03:27 -2.1 °F /  -18.9 °C -4.0 °F /  -20 °C 1018.8 in /  34496.6 hPa Calm     89 % 0.0 in /  0 mm
03:32 -2.1 °F /  -18.9 °C -4.0 °F /  -20 °C 1018.2 in /  34476.3 hPa Calm     89 % 0.0 in /  0 mm
03:37 -2.1 °F /  -18.9 °C -4.0 °F /  -20 °C 1018.2 in /  34476.3 hPa Calm     89 % 0.0 in /  0 mm
03:42 -2.0 °F /  -18.9 °C -4.0 °F /  -20 °C 1018.2 in /  34476.3 hPa Calm   3.5 mph /  5.6 km/h 89 % 0.0 in /  0 mm
03:47 -2.0 °F /  -18.9 °C -4.0 °F /  -20 °C 1018.8 in /  34496.6 hPa Calm   3.5 mph /  5.6 km/h 90 % 0.0 in /  0 mm
03:52 -2.1 °F /  -18.9 °C -4.0 °F /  -20 °C 1018.8 in /  34496.6 hPa Calm     90 % 0.0 in /  0 mm
03:57 -2.2 °F /  -19 °C -4.0 °F /  -20 °C 1018.8 in /  34496.6 hPa Calm     89 % 0.0 in /  0 mm
04:02 -2.2 °F /  -19 °C -4.0 °F /  -20 °C 1018.2 in /  34476.3 hPa Calm     89 % 0.0 in /  0 mm
04:07 -2.2 °F /  -19 °C -4.0 °F /  -20 °C 1018.2 in /  34476.3 hPa Calm     89 % 0.0 in /  0 mm
04:12 -2.2 °F /  -19 °C -4.0 °F /  -20 °C 1018.2 in /  34476.3 hPa Calm     90 % 0.0 in /  0 mm
04:17 -2.3 °F /  -19.1 °C -5.0 °F /  -20.6 °C 1018.8 in /  34496.6 hPa Calm     90 % 0.0 in /  0 mm
04:22 -2.3 °F /  -19.1 °C -5.0 °F /  -20.6 °C 1018.8 in /  34496.6 hPa Calm     90 % 0.0 in /  0 mm
04:27 -2.3 °F /  -19.1 °C -5.0 °F /  -20.6 °C 1018.8 in /  34496.6 hPa Calm     90 % 0.0 in /  0 mm
04:32 -2.3 °F /  -19.1 °C -5.0 °F /  -20.6 °C 1018.8 in /  34496.6 hPa Calm     90 % 0.0 in /  0 mm
04:37 -2.2 °F /  -19 °C -4.0 °F /  -20 °C 1018.8 in /  34496.6 hPa Calm     90 % 0.0 in /  0 mm
04:42 -2.1 °F /  -18.9 °C -4.0 °F /  -20 °C 1018.8 in /  34496.6 hPa Calm   2.6 mph /  4.2 km/h 91 % 0.0 in /  0 mm
04:48 -1.9 °F /  -18.8 °C -4.0 °F /  -20 °C 1018.8 in /  34496.6 hPa Calm   2.6 mph /  4.2 km/h 91 % 0.0 in /  0 mm
04:53 -1.8 °F /  -18.8 °C -3.0 °F /  -19.4 °C 1018.8 in /  34496.6 hPa Calm   2.1 mph /  3.4 km/h 92 % 0.0 in /  0 mm
04:58 -1.7 °F /  -18.7 °C -3.0 °F /  -19.4 °C 1018.8 in /  34496.6 hPa Calm     92 % 0.0 in /  0 mm
05:03 -1.7 °F /  -18.7 °C -3.0 °F /  -19.4 °C 1018.8 in /  34496.6 hPa Calm   2.1 mph /  3.4 km/h 92 % 0.0 in /  0 mm
05:08 -1.6 °F /  -18.7 °C -3.0 °F /  -19.4 °C 1018.8 in /  34496.6 hPa Calm   2.1 mph /  3.4 km/h 92 % 0.0 in /  0 mm
05:13 -1.6 °F /  -18.7 °C -3.0 °F /  -19.4 °C 1018.8 in /  34496.6 hPa Calm     92 % 0.0 in /  0 mm
05:18 -1.5 °F /  -18.6 °C -3.0 °F /  -19.4 °C 1018.8 in /  34496.6 hPa Calm     91 % 0.0 in /  0 mm
05:23 -1.4 °F /  -18.6 °C -3.0 °F /  -19.4 °C 1018.8 in /  34496.6 hPa Calm   1.8 mph /  2.9 km/h 91 % 0.0 in /  0 mm
05:28 -1.4 °F /  -18.6 °C -3.0 °F /  -19.4 °C 1018.8 in /  34496.6 hPa Calm   1.8 mph /  2.9 km/h 92 % 0.0 in /  0 mm
05:33 -1.3 °F /  -18.5 °C -3.0 °F /  -19.4 °C 1019.9 in /  34533.8 hPa Calm     92 % 0.0 in /  0 mm
05:38 -1.2 °F /  -18.4 °C -3.0 °F /  -19.4 °C 1019.9 in /  34533.8 hPa Calm     92 % 0.0 in /  0 mm
05:43 -1.2 °F /  -18.4 °C -3.0 °F /  -19.4 °C 1019.9 in /  34533.8 hPa Calm     92 % 0.0 in /  0 mm
05:48 -1.2 °F /  -18.4 °C -3.0 °F /  -19.4 °C 1018.8 in /  34496.6 hPa Calm     91 % 0.0 in /  0 mm
05:53 -1.1 °F /  -18.4 °C -3.0 °F /  -19.4 °C 1018.8 in /  34496.6 hPa Calm     91 % 0.0 in /  0 mm
05:58 -1.0 °F /  -18.3 °C -3.0 °F /  -19.4 °C 1018.8 in /  34496.6 hPa Calm     91 % 0.0 in /  0 mm
06:03 -1.0 °F /  -18.3 °C -3.0 °F /  -19.4 °C 1018.8 in /  34496.6 hPa Calm     91 % 0.0 in /  0 mm
06:08 -1.0 °F /  -18.3 °C -3.0 °F /  -19.4 °C 1018.8 in /  34496.6 hPa Calm     91 % 0.0 in /  0 mm
06:13 -0.9 °F /  -18.3 °C -3.0 °F /  -19.4 °C 1018.8 in /  34496.6 hPa Calm   2.1 mph /  3.4 km/h 91 % 0.0 in /  0 mm
06:18 -0.9 °F /  -18.3 °C -3.0 °F /  -19.4 °C 1018.8 in /  34496.6 hPa Calm   2.1 mph /  3.4 km/h 91 % 0.0 in /  0 mm
06:23 -0.8 °F /  -18.2 °C -3.0 °F /  -19.4 °C 1018.8 in /  34496.6 hPa Calm     90 % 0.0 in /  0 mm
06:29 -0.8 °F /  -18.2 °C -3.0 °F /  -19.4 °C 1018.8 in /  34496.6 hPa Calm     90 % 0.0 in /  0 mm
06:34 -0.7 °F /  -18.2 °C -3.0 °F /  -19.4 °C 1018.8 in /  34496.6 hPa Calm     90 % 0.0 in /  0 mm
06:39 -0.7 °F /  -18.2 °C -3.0 °F /  -19.4 °C 1018.8 in /  34496.6 hPa Calm     90 % 0.0 in /  0 mm
06:44 -0.6 °F /  -18.1 °C -3.0 °F /  -19.4 °C 1018.8 in /  34496.6 hPa Calm     90 % 0.0 in /  0 mm
06:49 -0.6 °F /  -18.1 °C -3.0 °F /  -19.4 °C 1018.8 in /  34496.6 hPa Calm     90 % 0.0 in /  0 mm
06:54 -0.6 °F /  -18.1 °C -3.0 °F /  -19.4 °C 1018.8 in /  34496.6 hPa Calm     90 % 0.0 in /  0 mm
06:59 -0.6 °F /  -18.1 °C -3.0 °F /  -19.4 °C 1018.8 in /  34496.6 hPa Calm     90 % 0.0 in /  0 mm
07:04 -0.6 °F /  -18.1 °C -3.0 °F /  -19.4 °C 1018.8 in /  34496.6 hPa Calm     90 % 0.0 in /  0 mm
07:09 -0.5 °F /  -18.1 °C -3.0 °F /  -19.4 °C 1018.8 in /  34496.6 hPa Calm     90 % 0.0 in /  0 mm
07:14 -0.5 °F /  -18.1 °C -3.0 °F /  -19.4 °C 1018.8 in /  34496.6 hPa Calm     90 % 0.0 in /  0 mm
07:19 -0.5 °F /  -18.1 °C -3.0 °F /  -19.4 °C 1018.8 in /  34496.6 hPa Calm     90 % 0.0 in /  0 mm
07:24 -0.5 °F /  -18.1 °C -3.0 °F /  -19.4 °C 1018.8 in /  34496.6 hPa Calm     90 % 0.0 in /  0 mm
07:29 -0.5 °F /  -18.1 °C -3.0 °F /  -19.4 °C 1018.8 in /  34496.6 hPa Calm     90 % 0.0 in /  0 mm
07:34 -0.5 °F /  -18.1 °C -3.0 °F /  -19.4 °C 1018.8 in /  34496.6 hPa Calm     90 % 0.0 in /  0 mm
07:39 -0.5 °F /  -18.1 °C -3.0 °F /  -19.4 °C 1018.8 in /  34496.6 hPa Calm     90 % 0.0 in /  0 mm
07:44 -0.5 °F /  -18.1 °C -3.0 °F /  -19.4 °C 1018.8 in /  34496.6 hPa Calm     90 % 0.0 in /  0 mm
07:49 -0.5 °F /  -18.1 °C -3.0 °F /  -19.4 °C 1018.8 in /  34496.6 hPa Calm     90 % 0.0 in /  0 mm
07:54 -0.5 °F /  -18.1 °C -3.0 °F /  -19.4 °C 1018.8 in /  34496.6 hPa Calm     90 % 0.0 in /  0 mm
07:59 -0.5 °F /  -18.1 °C -3.0 °F /  -19.4 °C 1018.8 in /  34496.6 hPa Calm     90 % 0.0 in /  0 mm
08:04 -0.5 °F /  -18.1 °C -3.0 °F /  -19.4 °C 1018.8 in /  34496.6 hPa Calm     90 % 0.0 in /  0 mm
08:09 -0.5 °F /  -18.1 °C -3.0 °F /  -19.4 °C 1018.8 in /  34496.6 hPa Calm     90 % 0.0 in /  0 mm
08:15 -0.5 °F /  -18.1 °C -3.0 °F /  -19.4 °C 1018.8 in /  34496.6 hPa Calm     90 % 0.0 in /  0 mm
08:20 -0.5 °F /  -18.1 °C -3.0 °F /  -19.4 °C 1018.8 in /  34496.6 hPa Calm     90 % 0.0 in /  0 mm
08:25 -0.5 °F /  -18.1 °C -3.0 °F /  -19.4 °C 1018.8 in /  34496.6 hPa Calm     89 % 0.0 in /  0 mm
08:30 -0.5 °F /  -18.1 °C -3.0 °F /  -19.4 °C 1018.8 in /  34496.6 hPa Calm     89 % 0.0 in /  0 mm
08:35 -0.4 °F /  -18 °C -3.0 °F /  -19.4 °C 1018.8 in /  34496.6 hPa Calm     89 % 0.0 in /  0 mm
08:40 -0.4 °F /  -18 °C -3.0 °F /  -19.4 °C 1018.8 in /  34496.6 hPa Calm     89 % 0.0 in /  0 mm
08:45 -0.3 °F /  -17.9 °C -3.0 °F /  -19.4 °C 1019.9 in /  34533.8 hPa Calm     89 % 0.0 in /  0 mm
08:50 -0.3 °F /  -17.9 °C -3.0 °F /  -19.4 °C 1019.9 in /  34533.8 hPa Calm     89 % 0.0 in /  0 mm
08:55 -0.2 °F /  -17.9 °C -2.0 °F /  -18.9 °C 1019.9 in /  34533.8 hPa Calm     89 % 0.0 in /  0 mm
09:00 -0.2 °F /  -17.9 °C -2.0 °F /  -18.9 °C 1018.8 in /  34496.6 hPa Calm     89 % 0.0 in /  0 mm
09:05 -0.1 °F /  -17.8 °C -2.0 °F /  -18.9 °C 1018.8 in /  34496.6 hPa Calm     89 % 0.0 in /  0 mm
09:10 -0.1 °F /  -17.8 °C -2.0 °F /  -18.9 °C 1018.8 in /  34496.6 hPa Calm     89 % 0.0 in /  0 mm
09:15 0.0 °F /  -17.8 °C -2.0 °F /  -18.9 °C 1019.9 in /  34533.8 hPa Calm     89 % 0.0 in /  0 mm
09:20 0.0 °F /  -17.8 °C -2.0 °F /  -18.9 °C 1019.9 in /  34533.8 hPa Calm     89 % 0.0 in /  0 mm
09:25 0.1 °F /  -17.7 °C -1.0 °F /  -18.3 °C 1019.9 in /  34533.8 hPa Calm     89 % 0.0 in /  0 mm
09:30 0.1 °F /  -17.7 °C -1.0 °F /  -18.3 °C 1019.9 in /  34533.8 hPa Calm     90 % 0.0 in /  0 mm
09:35 0.2 °F /  -17.7 °C -1.0 °F /  -18.3 °C 1019.9 in /  34533.8 hPa Calm     90 % 0.0 in /  0 mm
09:40 0.3 °F /  -17.6 °C -1.0 °F /  -18.3 °C 1019.9 in /  34533.8 hPa Calm     90 % 0.0 in /  0 mm
09:45 0.5 °F /  -17.5 °C -1.0 °F /  -18.3 °C 1019.9 in /  34533.8 hPa Calm     90 % 0.0 in /  0 mm
09:51 0.6 °F /  -17.4 °C -1.0 °F /  -18.3 °C 1019.9 in /  34533.8 hPa Calm     90 % 0.0 in /  0 mm
09:56 0.8 °F /  -17.3 °C 0.0 °F /  -17.8 °C 1019.9 in /  34533.8 hPa Calm     90 % 0.0 in /  0 mm
10:01 1.0 °F /  -17.2 °C 0.0 °F /  -17.8 °C 1019.9 in /  34533.8 hPa Calm     90 % 0.0 in /  0 mm
10:06 1.3 °F /  -17.1 °C 0.0 °F /  -17.8 °C 1019.9 in /  34533.8 hPa Calm     91 % 0.0 in /  0 mm
10:11 1.6 °F /  -16.9 °C 1.0 °F /  -17.2 °C 1019.9 in /  34533.8 hPa WSW 4.7 mph /  7.6 km/h 4.7 mph /  7.6 km/h 91 % 0.0 in /  0 mm
10:16 1.9 °F /  -16.7 °C 1.0 °F /  -17.2 °C 1019.9 in /  34533.8 hPa WSW 4.7 mph /  7.6 km/h 4.7 mph /  7.6 km/h 91 % 0.0 in /  0 mm
10:21 2.1 °F /  -16.6 °C 1.0 °F /  -17.2 °C 1019.9 in /  34533.8 hPa WSW 4.7 mph /  7.6 km/h 4.7 mph /  7.6 km/h 90 % 0.0 in /  0 mm
10:26 2.3 °F /  -16.5 °C 1.0 °F /  -17.2 °C 1019.9 in /  34533.8 hPa WSW 4.7 mph /  7.6 km/h 4.7 mph /  7.6 km/h 89 % 0.0 in /  0 mm
10:31 2.6 °F /  -16.3 °C 1.0 °F /  -17.2 °C 1019.9 in /  34533.8 hPa WSW 4.7 mph /  7.6 km/h 4.7 mph /  7.6 km/h 89 % 0.0 in /  0 mm
10:36 2.8 °F /  -16.2 °C 2.0 °F /  -16.7 °C 1019.9 in /  34533.8 hPa WSW 4.7 mph /  7.6 km/h 4.7 mph /  7.6 km/h 89 % 0.0 in /  0 mm
10:41 3.1 °F /  -16.1 °C 1.0 °F /  -17.2 °C 1019.9 in /  34533.8 hPa WSW 4.7 mph /  7.6 km/h 4.7 mph /  7.6 km/h 88 % 0.0 in /  0 mm
10:46 3.4 °F /  -15.9 °C 2.0 °F /  -16.7 °C 1019.9 in /  34533.8 hPa WSW 4.7 mph /  7.6 km/h 4.7 mph /  7.6 km/h 88 % 0.0 in /  0 mm
10:51 3.7 °F /  -15.7 °C 2.0 °F /  -16.7 °C 1019.9 in /  34533.8 hPa WSW 4.7 mph /  7.6 km/h 4.7 mph /  7.6 km/h 87 % 0.0 in /  0 mm
10:56 3.9 °F /  -15.6 °C 2.0 °F /  -16.7 °C 1019.9 in /  34533.8 hPa WSW 4.7 mph /  7.6 km/h 4.7 mph /  7.6 km/h 86 % 0.0 in /  0 mm
11:02 4.1 °F /  -15.5 °C 2.0 °F /  -16.7 °C 1018.8 in /  34496.6 hPa WSW 4.7 mph /  7.6 km/h 4.7 mph /  7.6 km/h 84 % 0.0 in /  0 mm
11:07 4.5 °F /  -15.3 °C 3.0 °F /  -16.1 °C 1018.8 in /  34496.6 hPa WSW 4.7 mph /  7.6 km/h 4.7 mph /  7.6 km/h 85 % 0.0 in /  0 mm
11:12 4.7 °F /  -15.2 °C 2.0 °F /  -16.7 °C 1018.8 in /  34496.6 hPa WSW 4.7 mph /  7.6 km/h 4.7 mph /  7.6 km/h 84 % 0.0 in /  0 mm
11:17 4.8 °F /  -15.1 °C 2.0 °F /  -16.7 °C 1019.9 in /  34533.8 hPa WSW 4.7 mph /  7.6 km/h 4.7 mph /  7.6 km/h 83 % 0.0 in /  0 mm
11:22 4.9 °F /  -15.1 °C 2.0 °F /  -16.7 °C 1019.9 in /  34533.8 hPa WSW 4.7 mph /  7.6 km/h 4.7 mph /  7.6 km/h 81 % 0.0 in /  0 mm
11:27 5.1 °F /  -14.9 °C 2.0 °F /  -16.7 °C 1019.9 in /  34533.8 hPa WSW 4.7 mph /  7.6 km/h 4.7 mph /  7.6 km/h 80 % 0.0 in /  0 mm
11:32 5.0 °F /  -15 °C 2.0 °F /  -16.7 °C 1019.9 in /  34533.8 hPa WSW 4.7 mph /  7.6 km/h 4.7 mph /  7.6 km/h 79 % 0.0 in /  0 mm
11:37 5.1 °F /  -14.9 °C 2.0 °F /  -16.7 °C 1019.9 in /  34533.8 hPa WSW 4.7 mph /  7.6 km/h 4.7 mph /  7.6 km/h 79 % 0.0 in /  0 mm
11:42 5.2 °F /  -14.9 °C 2.0 °F /  -16.7 °C 1019.9 in /  34533.8 hPa WSW 4.7 mph /  7.6 km/h 4.7 mph /  7.6 km/h 79 % 0.0 in /  0 mm
11:47 5.2 °F /  -14.9 °C 2.0 °F /  -16.7 °C 1019.9 in /  34533.8 hPa WSW 4.7 mph /  7.6 km/h 4.7 mph /  7.6 km/h 78 % 0.0 in /  0 mm
11:52 5.4 °F /  -14.8 °C 2.0 °F /  -16.7 °C 1019.9 in /  34533.8 hPa WSW 4.7 mph /  7.6 km/h 4.7 mph /  7.6 km/h 77 % 0.0 in /  0 mm
11:57 5.5 °F /  -14.7 °C 2.0 °F /  -16.7 °C 1019.9 in /  34533.8 hPa WSW 4.7 mph /  7.6 km/h 4.7 mph /  7.6 km/h 77 % 0.0 in /  0 mm
12:02 5.4 °F /  -14.8 °C 2.0 °F /  -16.7 °C 1019.9 in /  34533.8 hPa WSW 4.7 mph /  7.6 km/h 4.7 mph /  7.6 km/h 76 % 0.0 in /  0 mm
12:07 5.4 °F /  -14.8 °C 2.0 °F /  -16.7 °C 1019.9 in /  34533.8 hPa WSW 4.7 mph /  7.6 km/h 4.7 mph /  7.6 km/h 76 % 0.0 in /  0 mm
12:12 5.7 °F /  -14.6 °C 2.0 °F /  -16.7 °C 1019.9 in /  34533.8 hPa WSW 4.7 mph /  7.6 km/h 4.7 mph /  7.6 km/h 76 % 0.0 in /  0 mm
12:17 5.8 °F /  -14.6 °C 2.0 °F /  -16.7 °C 1019.9 in /  34533.8 hPa WSW 4.7 mph /  7.6 km/h 4.7 mph /  7.6 km/h 76 % 0.0 in /  0 mm
12:22 6.1 °F /  -14.4 °C 2.0 °F /  -16.7 °C 1019.9 in /  34533.8 hPa WSW 4.7 mph /  7.6 km/h 4.7 mph /  7.6 km/h 75 % 0.0 in /  0 mm
12:27 6.2 °F /  -14.3 °C 3.0 °F /  -16.1 °C 1019.9 in /  34533.8 hPa WSW 4.7 mph /  7.6 km/h 4.7 mph /  7.6 km/h 75 % 0.0 in /  0 mm
12:32 6.4 °F /  -14.2 °C 2.0 °F /  -16.7 °C 1019.9 in /  34533.8 hPa WSW 4.7 mph /  7.6 km/h 4.7 mph /  7.6 km/h 74 % 0.0 in /  0 mm
12:37 6.5 °F /  -14.2 °C 2.0 °F /  -16.7 °C 1019.9 in /  34533.8 hPa WSW 4.7 mph /  7.6 km/h 4.7 mph /  7.6 km/h 73 % 0.0 in /  0 mm
12:42 6.4 °F /  -14.2 °C 2.0 °F /  -16.7 °C 1019.9 in /  34533.8 hPa WSW 4.7 mph /  7.6 km/h 4.7 mph /  7.6 km/h 72 % 0.0 in /  0 mm
12:47 6.7 °F /  -14.1 °C 2.0 °F /  -16.7 °C 1019.9 in /  34533.8 hPa WSW 4.7 mph /  7.6 km/h 4.7 mph /  7.6 km/h 71 % 0.0 in /  0 mm
12:52 6.8 °F /  -14 °C 2.0 °F /  -16.7 °C 1019.9 in /  34533.8 hPa WSW 4.7 mph /  7.6 km/h 4.7 mph /  7.6 km/h 70 % 0.0 in /  0 mm
12:58 6.8 °F /  -14 °C 1.0 °F /  -17.2 °C 1019.9 in /  34533.8 hPa WSW 4.7 mph /  7.6 km/h 4.7 mph /  7.6 km/h 69 % 0.0 in /  0 mm
13:03 7.0 °F /  -13.9 °C 1.0 °F /  -17.2 °C 1019.9 in /  34533.8 hPa WSW 4.7 mph /  7.6 km/h 4.7 mph /  7.6 km/h 66 % 0.0 in /  0 mm
13:08 7.3 °F /  -13.7 °C 1.0 °F /  -17.2 °C 1019.9 in /  34533.8 hPa WSW 4.7 mph /  7.6 km/h 4.7 mph /  7.6 km/h 66 % 0.0 in /  0 mm
13:13 7.3 °F /  -13.7 °C 1.0 °F /  -17.2 °C 1019.9 in /  34533.8 hPa WSW 4.7 mph /  7.6 km/h 4.7 mph /  7.6 km/h 62 % 0.0 in /  0 mm
13:18 7.4 °F /  -13.7 °C 1.0 °F /  -17.2 °C 1018.8 in /  34496.6 hPa WSW 4.7 mph /  7.6 km/h 4.7 mph /  7.6 km/h 65 % 0.0 in /  0 mm
13:23 7.3 °F /  -13.7 °C 1.0 °F /  -17.2 °C 1018.8 in /  34496.6 hPa WSW 4.7 mph /  7.6 km/h 4.7 mph /  7.6 km/h 63 % 0.0 in /  0 mm
13:28 7.5 °F /  -13.6 °C 1.0 °F /  -17.2 °C 1018.8 in /  34496.6 hPa WSW 4.7 mph /  7.6 km/h 4.7 mph /  7.6 km/h 62 % 0.0 in /  0 mm
13:33 7.6 °F /  -13.6 °C 1.0 °F /  -17.2 °C 1018.8 in /  34496.6 hPa WSW 4.7 mph /  7.6 km/h 4.7 mph /  7.6 km/h 62 % 0.0 in /  0 mm
13:38 7.7 °F /  -13.5 °C 1.0 °F /  -17.2 °C 1018.8 in /  34496.6 hPa WSW 4.7 mph /  7.6 km/h 4.7 mph /  7.6 km/h 62 % 0.0 in /  0 mm
13:43 7.9 °F /  -13.4 °C 1.0 °F /  -17.2 °C 1018.8 in /  34496.6 hPa WSW 4.7 mph /  7.6 km/h 4.7 mph /  7.6 km/h 61 % 0.0 in /  0 mm
13:48 7.9 °F /  -13.4 °C 1.0 °F /  -17.2 °C 1018.8 in /  34496.6 hPa WSW 4.7 mph /  7.6 km/h 4.7 mph /  7.6 km/h 60 % 0.0 in /  0 mm
13:53 7.6 °F /  -13.6 °C 0.0 °F /  -17.8 °C 1018.8 in /  34496.6 hPa WSW 4.7 mph /  7.6 km/h 4.7 mph /  7.6 km/h 58 % 0.0 in /  0 mm
13:58 7.6 °F /  -13.6 °C 0.0 °F /  -17.8 °C 1018.8 in /  34496.6 hPa WSW 4.7 mph /  7.6 km/h 4.7 mph /  7.6 km/h 57 % 0.0 in /  0 mm
14:03 7.8 °F /  -13.4 °C 0.0 °F /  -17.8 °C 1018.8 in /  34496.6 hPa WSW 4.7 mph /  7.6 km/h 4.7 mph /  7.6 km/h 58 % 0.0 in /  0 mm
14:06 7.9 °F /  -13.4 °C 0.0 °F /  -17.8 °C 1018.8 in /  34496.6 hPa WSW 4.7 mph /  7.6 km/h 4.7 mph /  7.6 km/h 58 % 0.0 in /  0 mm
14:11 7.8 °F /  -13.4 °C 0.0 °F /  -17.8 °C 1018.8 in /  34496.6 hPa WSW 4.7 mph /  7.6 km/h 4.7 mph /  7.6 km/h 57 % 0.0 in /  0 mm
14:16 7.9 °F /  -13.4 °C 0.0 °F /  -17.8 °C 1018.8 in /  34496.6 hPa WSW 4.7 mph /  7.6 km/h 4.7 mph /  7.6 km/h 58 % 0.0 in /  0 mm
14:21 7.9 °F /  -13.4 °C 0.0 °F /  -17.8 °C 1018.8 in /  34496.6 hPa WSW 4.7 mph /  7.6 km/h 4.7 mph /  7.6 km/h 56 % 0.0 in /  0 mm
14:26 8.0 °F /  -13.3 °C 0.0 °F /  -17.8 °C 1018.8 in /  34496.6 hPa WSW 4.7 mph /  7.6 km/h 4.7 mph /  7.6 km/h 54 % 0.0 in /  0 mm
14:31 8.2 °F /  -13.2 °C 0.0 °F /  -17.8 °C 1018.2 in /  34476.3 hPa WSW 4.7 mph /  7.6 km/h 4.7 mph /  7.6 km/h 54 % 0.0 in /  0 mm
14:36 7.7 °F /  -13.5 °C -1.0 °F /  -18.3 °C 1018.2 in /  34476.3 hPa WSW 4.7 mph /  7.6 km/h 4.7 mph /  7.6 km/h 55 % 0.0 in /  0 mm
14:41 7.7 °F /  -13.5 °C -1.0 °F /  -18.3 °C 1018.2 in /  34476.3 hPa WSW 4.7 mph /  7.6 km/h 4.7 mph /  7.6 km/h 56 % 0.0 in /  0 mm
14:46 7.9 °F /  -13.4 °C 0.0 °F /  -17.8 °C 1018.8 in /  34496.6 hPa WSW 4.7 mph /  7.6 km/h 4.7 mph /  7.6 km/h 56 % 0.0 in /  0 mm
14:51 7.5 °F /  -13.6 °C -1.0 °F /  -18.3 °C 1018.8 in /  34496.6 hPa WSW 4.7 mph /  7.6 km/h 4.7 mph /  7.6 km/h 56 % 0.0 in /  0 mm
14:56 6.9 °F /  -13.9 °C -1.0 °F /  -18.3 °C 1018.8 in /  34496.6 hPa WSW 4.7 mph /  7.6 km/h 4.7 mph /  7.6 km/h 57 % 0.0 in /  0 mm
15:01 6.8 °F /  -14 °C 0.0 °F /  -17.8 °C 1018.8 in /  34496.6 hPa WSW 4.7 mph /  7.6 km/h 4.7 mph /  7.6 km/h 60 % 0.0 in /  0 mm
15:06 7.4 °F /  -13.7 °C 0.0 °F /  -17.8 °C 1018.8 in /  34496.6 hPa WSW 4.7 mph /  7.6 km/h 4.7 mph /  7.6 km/h 60 % 0.0 in /  0 mm
15:11 7.8 °F /  -13.4 °C 1.0 °F /  -17.2 °C 1018.8 in /  34496.6 hPa WSW 4.7 mph /  7.6 km/h 4.7 mph /  7.6 km/h 60 % 0.0 in /  0 mm
15:16 7.9 °F /  -13.4 °C 0.0 °F /  -17.8 °C 1018.8 in /  34496.6 hPa WSW 4.7 mph /  7.6 km/h 4.7 mph /  7.6 km/h 57 % 0.0 in /  0 mm
15:21 8.0 °F /  -13.3 °C 0.0 °F /  -17.8 °C 1018.8 in /  34496.6 hPa WSW 4.7 mph /  7.6 km/h 4.7 mph /  7.6 km/h 56 % 0.0 in /  0 mm
15:26 7.8 °F /  -13.4 °C -1.0 °F /  -18.3 °C 1018.8 in /  34496.6 hPa WSW 4.7 mph /  7.6 km/h 4.7 mph /  7.6 km/h 53 % 0.0 in /  0 mm
15:31 7.4 °F /  -13.7 °C -1.0 °F /  -18.3 °C 1018.8 in /  34496.6 hPa WSW 4.7 mph /  7.6 km/h 4.7 mph /  7.6 km/h 54 % 0.0 in /  0 mm
15:36 7.1 °F /  -13.8 °C -1.0 °F /  -18.3 °C 1018.8 in /  34496.6 hPa WSW 4.7 mph /  7.6 km/h 4.7 mph /  7.6 km/h 55 % 0.0 in /  0 mm
15:41 7.3 °F /  -13.7 °C -1.0 °F /  -18.3 °C 1018.8 in /  34496.6 hPa WSW 4.7 mph /  7.6 km/h 4.7 mph /  7.6 km/h 57 % 0.0 in /  0 mm
15:47 7.0 °F /  -13.9 °C -1.0 °F /  -18.3 °C 1018.2 in /  34476.3 hPa WSW 4.7 mph /  7.6 km/h 4.7 mph /  7.6 km/h 56 % 0.0 in /  0 mm
15:52 6.7 °F /  -14.1 °C -1.0 °F /  -18.3 °C 1018.2 in /  34476.3 hPa WSW 4.7 mph /  7.6 km/h 4.7 mph /  7.6 km/h 57 % 0.0 in /  0 mm
15:57 6.8 °F /  -14 °C -1.0 °F /  -18.3 °C 1018.2 in /  34476.3 hPa WSW 4.7 mph /  7.6 km/h 4.7 mph /  7.6 km/h 59 % 0.0 in /  0 mm
16:02 7.0 °F /  -13.9 °C 0.0 °F /  -17.8 °C 1018.2 in /  34476.3 hPa WSW 4.7 mph /  7.6 km/h 4.7 mph /  7.6 km/h 60 % 0.0 in /  0 mm
16:07 7.1 °F /  -13.8 °C 0.0 °F /  -17.8 °C 1018.2 in /  34476.3 hPa WSW 4.7 mph /  7.6 km/h 4.7 mph /  7.6 km/h 60 % 0.0 in /  0 mm
16:12 7.0 °F /  -13.9 °C -1.0 °F /  -18.3 °C 1018.2 in /  34476.3 hPa WSW 4.7 mph /  7.6 km/h 4.7 mph /  7.6 km/h 58 % 0.0 in /  0 mm
16:17 6.8 °F /  -14 °C 0.0 °F /  -17.8 °C 1018.2 in /  34476.3 hPa WSW 4.7 mph /  7.6 km/h 4.7 mph /  7.6 km/h 60 % 0.0 in /  0 mm
16:22 6.7 °F /  -14.1 °C 0.0 °F /  -17.8 °C 1018.2 in /  34476.3 hPa WSW 4.7 mph /  7.6 km/h 4.7 mph /  7.6 km/h 61 % 0.0 in /  0 mm
16:27 6.4 °F /  -14.2 °C -1.0 °F /  -18.3 °C 1018.2 in /  34476.3 hPa WSW 4.7 mph /  7.6 km/h 4.7 mph /  7.6 km/h 59 % 0.0 in /  0 mm
16:32 6.1 °F /  -14.4 °C -1.0 °F /  -18.3 °C 1018.2 in /  34476.3 hPa WSW 4.7 mph /  7.6 km/h 4.7 mph /  7.6 km/h 60 % 0.0 in /  0 mm
16:38 5.9 °F /  -14.5 °C -1.0 °F /  -18.3 °C 1018.2 in /  34476.3 hPa WSW 4.7 mph /  7.6 km/h 4.7 mph /  7.6 km/h 62 % 0.0 in /  0 mm
16:43 5.7 °F /  -14.6 °C -1.0 °F /  -18.3 °C 1018.2 in /  34476.3 hPa WSW 4.7 mph /  7.6 km/h 4.7 mph /  7.6 km/h 62 % 0.0 in /  0 mm
16:48 5.4 °F /  -14.8 °C -1.0 °F /  -18.3 °C 1018.2 in /  34476.3 hPa WSW 4.7 mph /  7.6 km/h 4.7 mph /  7.6 km/h 62 % 0.0 in /  0 mm
16:53 5.2 °F /  -14.9 °C -1.0 °F /  -18.3 °C 1018.2 in /  34476.3 hPa WSW 4.7 mph /  7.6 km/h 4.7 mph /  7.6 km/h 63 % 0.0 in /  0 mm
16:58 5.0 °F /  -15 °C -1.0 °F /  -18.3 °C 1018.2 in /  34476.3 hPa WSW 4.7 mph /  7.6 km/h 4.7 mph /  7.6 km/h 63 % 0.0 in /  0 mm
17:03 4.7 °F /  -15.2 °C -1.0 °F /  -18.3 °C 1018.2 in /  34476.3 hPa WSW 4.7 mph /  7.6 km/h 4.7 mph /  7.6 km/h 65 % 0.0 in /  0 mm
17:08 4.6 °F /  -15.2 °C -1.0 °F /  -18.3 °C 1018.2 in /  34476.3 hPa WSW 4.7 mph /  7.6 km/h 4.7 mph /  7.6 km/h 65 % 0.0 in /  0 mm
17:13 4.4 °F /  -15.3 °C -1.0 °F /  -18.3 °C 1018.2 in /  34476.3 hPa WSW 4.7 mph /  7.6 km/h 4.7 mph /  7.6 km/h 66 % 0.0 in /  0 mm
17:18 4.3 °F /  -15.4 °C -1.0 °F /  -18.3 °C 1018.2 in /  34476.3 hPa WSW 4.7 mph /  7.6 km/h 4.7 mph /  7.6 km/h 67 % 0.0 in /  0 mm
17:23 4.3 °F /  -15.4 °C -1.0 °F /  -18.3 °C 1018.2 in /  34476.3 hPa WSW 4.7 mph /  7.6 km/h 4.7 mph /  7.6 km/h 68 % 0.0 in /  0 mm
17:28 4.2 °F /  -15.4 °C -1.0 °F /  -18.3 °C 1018.2 in /  34476.3 hPa WSW 4.7 mph /  7.6 km/h 4.7 mph /  7.6 km/h 68 % 0.0 in /  0 mm
17:33 4.0 °F /  -15.6 °C -1.0 °F /  -18.3 °C 1018.2 in /  34476.3 hPa WSW 4.7 mph /  7.6 km/h 4.7 mph /  7.6 km/h 69 % 0.0 in /  0 mm
17:38 3.9 °F /  -15.6 °C -1.0 °F /  -18.3 °C 1018.2 in /  34476.3 hPa WSW 4.7 mph /  7.6 km/h 4.7 mph /  7.6 km/h 69 % 0.0 in /  0 mm
17:43 3.7 °F /  -15.7 °C -1.0 °F /  -18.3 °C 1018.2 in /  34476.3 hPa WSW 4.7 mph /  7.6 km/h 4.7 mph /  7.6 km/h 70 % 0.0 in /  0 mm
17:48 3.6 °F /  -15.8 °C -1.0 °F /  -18.3 °C 1018.2 in /  34476.3 hPa WSW 4.7 mph /  7.6 km/h 4.7 mph /  7.6 km/h 71 % 0.0 in /  0 mm
17:53 3.6 °F /  -15.8 °C -1.0 °F /  -18.3 °C 1018.2 in /  34476.3 hPa WSW 4.7 mph /  7.6 km/h 4.7 mph /  7.6 km/h 71 % 0.0 in /  0 mm
17:58 3.5 °F /  -15.8 °C -1.0 °F /  -18.3 °C 1018.2 in /  34476.3 hPa WSW 4.7 mph /  7.6 km/h 4.7 mph /  7.6 km/h 71 % 0.0 in /  0 mm
18:03 3.4 °F /  -15.9 °C -1.0 °F /  -18.3 °C 1018.2 in /  34476.3 hPa SSW 9.7 mph /  15.6 km/h 9.7 mph /  15.6 km/h 72 % 0.0 in /  0 mm
18:08 3.4 °F /  -15.9 °C -1.0 °F /  -18.3 °C 1018.2 in /  34476.3 hPa SSW 9.7 mph /  15.6 km/h 9.7 mph /  15.6 km/h 72 % 0.0 in /  0 mm
18:13 3.3 °F /  -15.9 °C -1.0 °F /  -18.3 °C 1018.2 in /  34476.3 hPa SSW 9.7 mph /  15.6 km/h 9.7 mph /  15.6 km/h 73 % 0.0 in /  0 mm
18:18 3.2 °F /  -16 °C -1.0 °F /  -18.3 °C 1018.2 in /  34476.3 hPa SSW 9.7 mph /  15.6 km/h 9.7 mph /  15.6 km/h 73 % 0.0 in /  0 mm
18:23 3.0 °F /  -16.1 °C -1.0 °F /  -18.3 °C 1018.2 in /  34476.3 hPa SSW 9.7 mph /  15.6 km/h 9.7 mph /  15.6 km/h 73 % 0.0 in /  0 mm
18:29 2.9 °F /  -16.2 °C -1.0 °F /  -18.3 °C 1018.2 in /  34476.3 hPa SSW 9.7 mph /  15.6 km/h 9.7 mph /  15.6 km/h 74 % 0.0 in /  0 mm
18:34 2.8 °F /  -16.2 °C -1.0 °F /  -18.3 °C 1018.2 in /  34476.3 hPa SSW 9.7 mph /  15.6 km/h 9.7 mph /  15.6 km/h 75 % 0.0 in /  0 mm
18:39 2.8 °F /  -16.2 °C -1.0 °F /  -18.3 °C 1018.2 in /  34476.3 hPa SSW 9.7 mph /  15.6 km/h 9.7 mph /  15.6 km/h 76 % 0.0 in /  0 mm
18:44 2.7 °F /  -16.3 °C -1.0 °F /  -18.3 °C 1018.2 in /  34476.3 hPa SSW 9.7 mph /  15.6 km/h 9.7 mph /  15.6 km/h 76 % 0.0 in /  0 mm
18:49 2.7 °F /  -16.3 °C -1.0 °F /  -18.3 °C 1018.2 in /  34476.3 hPa SSW 9.7 mph /  15.6 km/h 9.7 mph /  15.6 km/h 77 % 0.0 in /  0 mm
18:54 2.7 °F /  -16.3 °C -1.0 °F /  -18.3 °C 1018.2 in /  34476.3 hPa SSW 9.7 mph /  15.6 km/h 9.7 mph /  15.6 km/h 77 % 0.0 in /  0 mm
18:59 2.6 °F /  -16.3 °C -1.0 °F /  -18.3 °C 1018.2 in /  34476.3 hPa SSW 9.7 mph /  15.6 km/h 9.7 mph /  15.6 km/h 77 % 0.0 in /  0 mm
19:04 2.4 °F /  -16.4 °C -1.0 °F /  -18.3 °C 1018.2 in /  34476.3 hPa SSW 9.7 mph /  15.6 km/h 9.7 mph /  15.6 km/h 78 % 0.0 in /  0 mm
19:09 2.3 °F /  -16.5 °C -1.0 °F /  -18.3 °C 1018.2 in /  34476.3 hPa SSW 9.7 mph /  15.6 km/h 9.7 mph /  15.6 km/h 78 % 0.0 in /  0 mm
19:14 2.2 °F /  -16.6 °C -1.0 °F /  -18.3 °C 1018.2 in /  34476.3 hPa SSW 9.7 mph /  15.6 km/h 9.7 mph /  15.6 km/h 79 % 0.0 in /  0 mm
19:19 2.1 °F /  -16.6 °C -1.0 °F /  -18.3 °C 1018.2 in /  34476.3 hPa SSW 9.7 mph /  15.6 km/h 9.7 mph /  15.6 km/h 81 % 0.0 in /  0 mm
19:24 2.1 °F /  -16.6 °C -1.0 °F /  -18.3 °C 1018.2 in /  34476.3 hPa SSW 9.7 mph /  15.6 km/h 9.7 mph /  15.6 km/h 81 % 0.0 in /  0 mm
19:29 2.0 °F /  -16.7 °C -1.0 °F /  -18.3 °C 1016.8 in /  34428.8 hPa SSW 9.7 mph /  15.6 km/h 9.7 mph /  15.6 km/h 81 % 0.0 in /  0 mm
19:34 2.0 °F /  -16.7 °C 0.0 °F /  -17.8 °C 1016.8 in /  34428.8 hPa SSW 6.9 mph /  11.1 km/h 6.9 mph /  11.1 km/h 82 % 0.0 in /  0 mm
19:39 1.9 °F /  -16.7 °C -1.0 °F /  -18.3 °C 1016.8 in /  34428.8 hPa SSW 6.9 mph /  11.1 km/h 6.9 mph /  11.1 km/h 83 % 0.0 in /  0 mm
19:44 1.9 °F /  -16.7 °C 0.0 °F /  -17.8 °C 1018.2 in /  34476.3 hPa SSW 6.9 mph /  11.1 km/h 6.9 mph /  11.1 km/h 84 % 0.0 in /  0 mm
19:49 2.0 °F /  -16.7 °C 0.0 °F /  -17.8 °C 1018.2 in /  34476.3 hPa SSW 6.9 mph /  11.1 km/h 6.9 mph /  11.1 km/h 84 % 0.0 in /  0 mm
19:54 1.9 °F /  -16.7 °C 0.0 °F /  -17.8 °C 1018.2 in /  34476.3 hPa SSW 6.9 mph /  11.1 km/h 6.9 mph /  11.1 km/h 84 % 0.0 in /  0 mm
19:59 1.9 °F /  -16.7 °C 0.0 °F /  -17.8 °C 1016.8 in /  34428.8 hPa SSW 6.9 mph /  11.1 km/h 6.9 mph /  11.1 km/h 84 % 0.0 in /  0 mm
20:04 1.8 °F /  -16.8 °C -1.0 °F /  -18.3 °C 1016.8 in /  34428.8 hPa SSW 6.9 mph /  11.1 km/h 6.9 mph /  11.1 km/h 84 % 0.0 in /  0 mm
20:09 1.8 °F /  -16.8 °C -1.0 °F /  -18.3 °C 1016.8 in /  34428.8 hPa SSW 6.9 mph /  11.1 km/h 6.9 mph /  11.1 km/h 84 % 0.0 in /  0 mm
20:14 1.7 °F /  -16.8 °C -1.0 °F /  -18.3 °C 1016.8 in /  34428.8 hPa SSW 6.9 mph /  11.1 km/h 6.9 mph /  11.1 km/h 84 % 0.0 in /  0 mm
20:19 1.7 °F /  -16.8 °C -1.0 °F /  -18.3 °C 1016.8 in /  34428.8 hPa SSW 6.9 mph /  11.1 km/h 6.9 mph /  11.1 km/h 84 % 0.0 in /  0 mm
20:24 1.7 °F /  -16.8 °C -1.0 °F /  -18.3 °C 1016.8 in /  34428.8 hPa SSW 6.9 mph /  11.1 km/h 6.9 mph /  11.1 km/h 84 % 0.0 in /  0 mm
20:29 1.7 °F /  -16.8 °C -1.0 °F /  -18.3 °C 1016.8 in /  34428.8 hPa SSW 6.9 mph /  11.1 km/h 6.9 mph /  11.1 km/h 84 % 0.0 in /  0 mm
20:35 1.6 °F /  -16.9 °C -1.0 °F /  -18.3 °C 1016.8 in /  34428.8 hPa SSW 6.9 mph /  11.1 km/h 6.9 mph /  11.1 km/h 84 % 0.0 in /  0 mm
20:40 1.6 °F /  -16.9 °C 0.0 °F /  -17.8 °C 1016.8 in /  34428.8 hPa SSW 6.9 mph /  11.1 km/h 6.9 mph /  11.1 km/h 85 % 0.0 in /  0 mm
20:45 1.6 °F /  -16.9 °C 0.0 °F /  -17.8 °C 1016.8 in /  34428.8 hPa SSW 6.9 mph /  11.1 km/h 6.9 mph /  11.1 km/h 85 % 0.0 in /  0 mm
20:50 1.5 °F /  -16.9 °C 0.0 °F /  -17.8 °C 1016.8 in /  34428.8 hPa SSW 6.9 mph /  11.1 km/h 6.9 mph /  11.1 km/h 85 % 0.0 in /  0 mm
20:55 1.5 °F /  -16.9 °C 0.0 °F /  -17.8 °C 1016.8 in /  34428.8 hPa SSW 6.9 mph /  11.1 km/h 6.9 mph /  11.1 km/h 86 % 0.0 in /  0 mm
21:00 1.5 °F /  -16.9 °C 0.0 °F /  -17.8 °C 1016.8 in /  34428.8 hPa SSW 6.9 mph /  11.1 km/h 6.9 mph /  11.1 km/h 86 % 0.0 in /  0 mm
21:05 1.4 °F /  -17 °C -1.0 °F /  -18.3 °C 1016.8 in /  34428.8 hPa SSW 6.9 mph /  11.1 km/h 6.9 mph /  11.1 km/h 86 % 0.0 in /  0 mm
21:10 1.4 °F /  -17 °C -1.0 °F /  -18.3 °C 1016.8 in /  34428.8 hPa SSW 6.9 mph /  11.1 km/h 6.9 mph /  11.1 km/h 86 % 0.0 in /  0 mm
21:15 1.4 °F /  -17 °C -1.0 °F /  -18.3 °C 1016.8 in /  34428.8 hPa SSW 6.9 mph /  11.1 km/h 6.9 mph /  11.1 km/h 86 % 0.0 in /  0 mm
21:20 1.4 °F /  -17 °C 0.0 °F /  -17.8 °C 1016.8 in /  34428.8 hPa SSW 6.9 mph /  11.1 km/h 6.9 mph /  11.1 km/h 87 % 0.0 in /  0 mm
21:25 1.3 °F /  -17.1 °C 0.0 °F /  -17.8 °C 1016.8 in /  34428.8 hPa SSW 6.9 mph /  11.1 km/h 6.9 mph /  11.1 km/h 87 % 0.0 in /  0 mm
21:30 1.3 °F /  -17.1 °C 0.0 °F /  -17.8 °C 1016.8 in /  34428.8 hPa SSW 6.9 mph /  11.1 km/h 6.9 mph /  11.1 km/h 87 % 0.0 in /  0 mm
21:35 1.2 °F /  -17.1 °C 0.0 °F /  -17.8 °C 1016.8 in /  34428.8 hPa SSW 6.9 mph /  11.1 km/h 6.9 mph /  11.1 km/h 87 % 0.0 in /  0 mm
21:40 1.2 °F /  -17.1 °C 0.0 °F /  -17.8 °C 1016.8 in /  34428.8 hPa SSW 6.9 mph /  11.1 km/h 6.9 mph /  11.1 km/h 88 % 0.0 in /  0 mm
21:45 1.2 °F /  -17.1 °C 0.0 °F /  -17.8 °C 1016.8 in /  34428.8 hPa SSW 6.9 mph /  11.1 km/h 6.9 mph /  11.1 km/h 88 % 0.0 in /  0 mm
21:50 1.2 °F /  -17.1 °C 0.0 °F /  -17.8 °C 1016.8 in /  34428.8 hPa SSW 6.9 mph /  11.1 km/h 6.9 mph /  11.1 km/h 88 % 0.0 in /  0 mm
21:55 1.2 °F /  -17.1 °C 0.0 °F /  -17.8 °C 1016.8 in /  34428.8 hPa SSW 6.9 mph /  11.1 km/h 6.9 mph /  11.1 km/h 88 % 0.0 in /  0 mm
22:00 1.1 °F /  -17.2 °C -1.0 °F /  -18.3 °C 1016.8 in /  34428.8 hPa SSW 6.9 mph /  11.1 km/h 6.9 mph /  11.1 km/h 88 % 0.0 in /  0 mm
22:05 1.1 °F /  -17.2 °C -1.0 °F /  -18.3 °C 1016.8 in /  34428.8 hPa SSW 6.9 mph /  11.1 km/h 6.9 mph /  11.1 km/h 88 % 0.0 in /  0 mm
22:11 1.1 °F /  -17.2 °C -1.0 °F /  -18.3 °C 1016.8 in /  34428.8 hPa SSW 6.9 mph /  11.1 km/h 6.9 mph /  11.1 km/h 88 % 0.0 in /  0 mm
22:16 1.1 °F /  -17.2 °C -1.0 °F /  -18.3 °C 1016.8 in /  34428.8 hPa SSW 6.9 mph /  11.1 km/h 6.9 mph /  11.1 km/h 88 % 0.0 in /  0 mm
22:21 1.0 °F /  -17.2 °C -1.0 °F /  -18.3 °C 1016.8 in /  34428.8 hPa SSW 6.1 mph /  9.8 km/h 6.1 mph /  9.8 km/h 88 % 0.0 in /  0 mm
22:26 1.0 °F /  -17.2 °C -1.0 °F /  -18.3 °C 1016.8 in /  34428.8 hPa SSW 13.7 mph /  22 km/h 13.7 mph /  22 km/h 88 % 0.0 in /  0 mm
22:31 1.0 °F /  -17.2 °C -1.0 °F /  -18.3 °C 1016.8 in /  34428.8 hPa SSW 6.9 mph /  11.1 km/h 13.7 mph /  22 km/h 88 % 0.0 in /  0 mm
22:36 1.0 °F /  -17.2 °C -1.0 °F /  -18.3 °C 1016.8 in /  34428.8 hPa South 9.3 mph /  15 km/h 13.7 mph /  22 km/h 88 % 0.0 in /  0 mm
22:41 1.0 °F /  -17.2 °C -1.0 °F /  -18.3 °C 1016.8 in /  34428.8 hPa South 5.8 mph /  9.3 km/h 10.5 mph /  16.9 km/h 88 % 0.0 in /  0 mm
22:46 1.0 °F /  -17.2 °C -1.0 °F /  -18.3 °C 1016.8 in /  34428.8 hPa South 13.0 mph /  20.9 km/h 13.0 mph /  20.9 km/h 88 % 0.0 in /  0 mm
22:51 1.0 °F /  -17.2 °C -1.0 °F /  -18.3 °C 1016.8 in /  34428.8 hPa South 13.0 mph /  20.9 km/h 13.0 mph /  20.9 km/h 88 % 0.0 in /  0 mm
22:56 1.0 °F /  -17.2 °C -1.0 °F /  -18.3 °C 1016.8 in /  34428.8 hPa South 12.6 mph /  20.3 km/h 13.0 mph /  20.9 km/h 88 % 0.0 in /  0 mm
23:01 0.9 °F /  -17.3 °C -1.0 °F /  -18.3 °C 1016.8 in /  34428.8 hPa SSW 9.0 mph /  14.5 km/h 13.0 mph /  20.9 km/h 88 % 0.0 in /  0 mm
23:06 0.9 °F /  -17.3 °C -1.0 °F /  -18.3 °C 1016.8 in /  34428.8 hPa SSW 11.9 mph /  19.2 km/h 12.6 mph /  20.3 km/h 88 % 0.0 in /  0 mm
23:12 0.9 °F /  -17.3 °C -1.0 °F /  -18.3 °C 1016.8 in /  34428.8 hPa SSE 13.0 mph /  20.9 km/h 13.0 mph /  20.9 km/h 88 % 0.0 in /  0 mm
23:17 0.9 °F /  -17.3 °C -1.0 °F /  -18.3 °C 1016.1 in /  34405.1 hPa SSW 16.6 mph /  26.7 km/h 16.6 mph /  26.7 km/h 88 % 0.0 in /  0 mm
23:22 0.9 °F /  -17.3 °C -1.0 °F /  -18.3 °C 1016.1 in /  34405.1 hPa SSW 6.9 mph /  11.1 km/h 16.6 mph /  26.7 km/h 88 % 0.0 in /  0 mm
23:27 0.8 °F /  -17.3 °C -1.0 °F /  -18.3 °C 1016.1 in /  34405.1 hPa SSW 9.3 mph /  15 km/h 16.6 mph /  26.7 km/h 88 % 0.0 in /  0 mm
23:32 0.8 °F /  -17.3 °C -1.0 °F /  -18.3 °C 1016.1 in /  34405.1 hPa South 10.5 mph /  16.9 km/h 14.0 mph /  22.5 km/h 88 % 0.0 in /  0 mm
23:37 0.8 °F /  -17.3 °C -1.0 °F /  -18.3 °C 1016.1 in /  34405.1 hPa SSW 5.8 mph /  9.3 km/h 12.6 mph /  20.3 km/h 87 % 0.0 in /  0 mm
23:42 0.7 °F /  -17.4 °C -1.0 °F /  -18.3 °C 1016.1 in /  34405.1 hPa SSW 8.7 mph /  14 km/h 11.6 mph /  18.7 km/h 87 % 0.0 in /  0 mm
23:47 0.7 °F /  -17.4 °C -1.0 °F /  -18.3 °C 1015.1 in /  34371.3 hPa SSW 8.7 mph /  14 km/h 11.6 mph /  18.7 km/h 87 % 0.0 in /  0 mm
23:52 0.7 °F /  -17.4 °C -1.0 °F /  -18.3 °C 1015.1 in /  34371.3 hPa SSW 8.7 mph /  14 km/h 8.7 mph /  14 km/h 87 % 0.0 in /  0 mm
23:57 0.7 °F /  -17.4 °C -1.0 °F /  -18.3 °C 1015.1 in /  34371.3 hPa SSW 8.7 mph /  14 km/h 8.7 mph /  14 km/h 87 % 0.0 in /  0 mm
Le Gheer Warneton
Courtoisie de Weather Underground - 2.25 mb

Mise a jour : 21/02/2018 11:55:11
Généré par Cumulus 1.9.4 (1099)